sensor_id;sensor_type;location;lat;lon;timestamp;temperature;humidity
4411;DHT22;2218;51.408;7.208;2022-10-16T00:01:54;19.60;57.00
4411;DHT22;2218;51.408;7.208;2022-10-16T00:04:21;19.60;57.00
4411;DHT22;2218;51.408;7.208;2022-10-16T00:06:48;19.60;57.00
4411;DHT22;2218;51.408;7.208;2022-10-16T00:09:15;19.60;57.00
4411;DHT22;2218;51.408;7.208;2022-10-16T00:11:42;19.60;56.90
4411;DHT22;2218;51.408;7.208;2022-10-16T00:14:12;19.60;57.00
4411;DHT22;2218;51.408;7.208;2022-10-16T00:16:41;19.60;57.40
4411;DHT22;2218;51.408;7.208;2022-10-16T00:19:11;19.60;56.90
4411;DHT22;2218;51.408;7.208;2022-10-16T00:21:38;19.60;56.90
4411;DHT22;2218;51.408;7.208;2022-10-16T00:24:07;19.60;56.90
4411;DHT22;2218;51.408;7.208;2022-10-16T00:26:37;19.60;56.90
4411;DHT22;2218;51.408;7.208;2022-10-16T00:29:05;19.60;56.90
4411;DHT22;2218;51.408;7.208;2022-10-16T00:31:33;19.60;56.90
4411;DHT22;2218;51.408;7.208;2022-10-16T00:34:00;19.60;57.40
4411;DHT22;2218;51.408;7.208;2022-10-16T00:36:28;19.60;57.00
4411;DHT22;2218;51.408;7.208;2022-10-16T00:38:56;19.60;56.90
4411;DHT22;2218;51.408;7.208;2022-10-16T00:41:26;19.60;56.90
4411;DHT22;2218;51.408;7.208;2022-10-16T00:43:55;19.60;56.90
4411;DHT22;2218;51.408;7.208;2022-10-16T00:46:25;19.60;56.90
4411;DHT22;2218;51.408;7.208;2022-10-16T00:48:58;19.60;56.90
4411;DHT22;2218;51.408;7.208;2022-10-16T00:51:33;19.60;56.80
4411;DHT22;2218;51.408;7.208;2022-10-16T00:54:02;19.60;56.80
4411;DHT22;2218;51.408;7.208;2022-10-16T00:56:34;19.60;56.90
4411;DHT22;2218;51.408;7.208;2022-10-16T00:59:04;19.60;56.80
4411;DHT22;2218;51.408;7.208;2022-10-16T01:01:34;19.60;56.80
4411;DHT22;2218;51.408;7.208;2022-10-16T01:04:01;19.60;56.80
4411;DHT22;2218;51.408;7.208;2022-10-16T01:06:35;19.60;56.80
4411;DHT22;2218;51.408;7.208;2022-10-16T01:09:15;19.60;56.80
4411;DHT22;2218;51.408;7.208;2022-10-16T01:11:55;19.60;56.80
4411;DHT22;2218;51.408;7.208;2022-10-16T01:14:34;19.60;56.80
4411;DHT22;2218;51.408;7.208;2022-10-16T01:17:10;19.60;56.70
4411;DHT22;2218;51.408;7.208;2022-10-16T01:20:01;19.60;56.70
4411;DHT22;2218;51.408;7.208;2022-10-16T01:22:40;19.60;56.70
4411;DHT22;2218;51.408;7.208;2022-10-16T01:25:21;19.60;56.70
4411;DHT22;2218;51.408;7.208;2022-10-16T01:27:59;19.50;56.60
4411;DHT22;2218;51.408;7.208;2022-10-16T01:30:30;19.60;56.70
4411;DHT22;2218;51.408;7.208;2022-10-16T01:33:03;19.60;56.70
4411;DHT22;2218;51.408;7.208;2022-10-16T01:35:36;19.60;56.70
4411;DHT22;2218;51.408;7.208;2022-10-16T01:38:09;19.60;56.70
4411;DHT22;2218;51.408;7.208;2022-10-16T01:40:44;19.50;56.50
4411;DHT22;2218;51.408;7.208;2022-10-16T01:43:20;19.60;56.70
4411;DHT22;2218;51.408;7.208;2022-10-16T01:45:52;19.60;56.70
4411;DHT22;2218;51.408;7.208;2022-10-16T01:48:21;19.60;56.70
4411;DHT22;2218;51.408;7.208;2022-10-16T01:50:54;19.60;56.60
4411;DHT22;2218;51.408;7.208;2022-10-16T01:53:24;19.60;56.70
4411;DHT22;2218;51.408;7.208;2022-10-16T01:55:54;19.60;56.60
4411;DHT22;2218;51.408;7.208;2022-10-16T01:58:28;19.60;56.60
4411;DHT22;2218;51.408;7.208;2022-10-16T02:01:02;19.60;56.60
4411;DHT22;2218;51.408;7.208;2022-10-16T02:03:32;19.60;56.50
4411;DHT22;2218;51.408;7.208;2022-10-16T02:06:00;19.50;56.50
4411;DHT22;2218;51.408;7.208;2022-10-16T02:08:28;19.60;56.60
4411;DHT22;2218;51.408;7.208;2022-10-16T02:10:57;19.60;56.60
4411;DHT22;2218;51.408;7.208;2022-10-16T02:13:30;19.60;56.50
4411;DHT22;2218;51.408;7.208;2022-10-16T02:15:59;19.60;56.60
4411;DHT22;2218;51.408;7.208;2022-10-16T02:18:26;19.60;56.50
4411;DHT22;2218;51.408;7.208;2022-10-16T02:20:58;19.60;56.50
4411;DHT22;2218;51.408;7.208;2022-10-16T02:23:37;19.60;56.50
4411;DHT22;2218;51.408;7.208;2022-10-16T02:26:15;19.60;56.50
4411;DHT22;2218;51.408;7.208;2022-10-16T02:28:54;19.50;56.40
4411;DHT22;2218;51.408;7.208;2022-10-16T02:31:28;19.50;56.40
4411;DHT22;2218;51.408;7.208;2022-10-16T02:34:00;19.50;56.30
4411;DHT22;2218;51.408;7.208;2022-10-16T02:36:31;19.50;56.40
4411;DHT22;2218;51.408;7.208;2022-10-16T02:39:00;19.50;56.40
4411;DHT22;2218;51.408;7.208;2022-10-16T02:41:30;19.50;56.30
4411;DHT22;2218;51.408;7.208;2022-10-16T02:43:58;19.50;56.30
4411;DHT22;2218;51.408;7.208;2022-10-16T02:46:26;19.50;56.30
4411;DHT22;2218;51.408;7.208;2022-10-16T02:48:53;19.50;56.30
4411;DHT22;2218;51.408;7.208;2022-10-16T02:51:19;19.50;56.30
4411;DHT22;2218;51.408;7.208;2022-10-16T02:53:46;19.50;56.30
4411;DHT22;2218;51.408;7.208;2022-10-16T02:56:13;19.50;56.70
4411;DHT22;2218;51.408;7.208;2022-10-16T02:58:40;19.50;56.20
4411;DHT22;2218;51.408;7.208;2022-10-16T03:01:08;19.50;56.30
4411;DHT22;2218;51.408;7.208;2022-10-16T03:03:37;19.50;56.20
4411;DHT22;2218;51.408;7.208;2022-10-16T03:06:04;19.50;56.20
4411;DHT22;2218;51.408;7.208;2022-10-16T03:08:32;19.50;56.20
4411;DHT22;2218;51.408;7.208;2022-10-16T03:10:58;19.50;56.20
4411;DHT22;2218;51.408;7.208;2022-10-16T03:13:27;19.50;56.20
4411;DHT22;2218;51.408;7.208;2022-10-16T03:15:54;19.50;56.20
4411;DHT22;2218;51.408;7.208;2022-10-16T03:18:23;19.50;56.20
4411;DHT22;2218;51.408;7.208;2022-10-16T03:20:49;19.50;56.20
4411;DHT22;2218;51.408;7.208;2022-10-16T03:23:16;19.50;56.10
4411;DHT22;2218;51.408;7.208;2022-10-16T03:25:43;19.50;56.10
4411;DHT22;2218;51.408;7.208;2022-10-16T03:28:10;19.50;56.10
4411;DHT22;2218;51.408;7.208;2022-10-16T03:30:37;19.50;56.10
4411;DHT22;2218;51.408;7.208;2022-10-16T03:33:05;19.50;56.10
4411;DHT22;2218;51.408;7.208;2022-10-16T03:35:33;19.50;56.10
4411;DHT22;2218;51.408;7.208;2022-10-16T03:38:00;19.50;56.10
4411;DHT22;2218;51.408;7.208;2022-10-16T03:40:27;19.50;56.10
4411;DHT22;2218;51.408;7.208;2022-10-16T03:42:54;19.50;56.00
4411;DHT22;2218;51.408;7.208;2022-10-16T03:45:23;19.50;56.10
4411;DHT22;2218;51.408;7.208;2022-10-16T03:47:49;19.50;56.00
4411;DHT22;2218;51.408;7.208;2022-10-16T03:50:16;19.50;56.00
4411;DHT22;2218;51.408;7.208;2022-10-16T03:52:45;19.50;56.00
4411;DHT22;2218;51.408;7.208;2022-10-16T03:55:11;19.50;56.00
4411;DHT22;2218;51.408;7.208;2022-10-16T03:57:38;19.50;56.00
4411;DHT22;2218;51.408;7.208;2022-10-16T04:00:06;19.50;56.00
4411;DHT22;2218;51.408;7.208;2022-10-16T04:02:37;19.50;56.00
4411;DHT22;2218;51.408;7.208;2022-10-16T04:05:05;19.50;55.90
4411;DHT22;2218;51.408;7.208;2022-10-16T04:07:33;19.50;55.90
4411;DHT22;2218;51.408;7.208;2022-10-16T04:10:01;19.50;55.90
4411;DHT22;2218;51.408;7.208;2022-10-16T04:12:28;19.50;55.90
4411;DHT22;2218;51.408;7.208;2022-10-16T04:14:55;19.50;55.90
4411;DHT22;2218;51.408;7.208;2022-10-16T04:17:22;19.50;55.90
4411;DHT22;2218;51.408;7.208;2022-10-16T04:19:49;19.50;56.40
4411;DHT22;2218;51.408;7.208;2022-10-16T04:22:16;19.50;55.90
4411;DHT22;2218;51.408;7.208;2022-10-16T04:24:43;19.50;55.90
4411;DHT22;2218;51.408;7.208;2022-10-16T04:27:11;19.50;55.90
4411;DHT22;2218;51.408;7.208;2022-10-16T04:29:38;19.50;55.80
4411;DHT22;2218;51.408;7.208;2022-10-16T04:32:04;19.50;55.80
4411;DHT22;2218;51.408;7.208;2022-10-16T04:34:31;19.50;55.80
4411;DHT22;2218;51.408;7.208;2022-10-16T04:36:58;19.50;55.80
4411;DHT22;2218;51.408;7.208;2022-10-16T04:39:25;19.50;55.80
4411;DHT22;2218;51.408;7.208;2022-10-16T04:41:52;19.50;55.80
4411;DHT22;2218;51.408;7.208;2022-10-16T04:44:20;19.50;55.70
4411;DHT22;2218;51.408;7.208;2022-10-16T04:46:47;19.50;55.80
4411;DHT22;2218;51.408;7.208;2022-10-16T04:49:16;19.50;55.80
4411;DHT22;2218;51.408;7.208;2022-10-16T04:51:43;19.50;55.70
4411;DHT22;2218;51.408;7.208;2022-10-16T04:54:10;19.50;55.70
4411;DHT22;2218;51.408;7.208;2022-10-16T04:56:37;19.50;55.70
4411;DHT22;2218;51.408;7.208;2022-10-16T04:59:12;19.50;55.70
4411;DHT22;2218;51.408;7.208;2022-10-16T05:01:40;19.50;55.70
4411;DHT22;2218;51.408;7.208;2022-10-16T05:04:08;19.50;55.70
4411;DHT22;2218;51.408;7.208;2022-10-16T05:06:35;19.50;55.60
4411;DHT22;2218;51.408;7.208;2022-10-16T05:09:04;19.50;55.60
4411;DHT22;2218;51.408;7.208;2022-10-16T05:11:31;19.50;55.60
4411;DHT22;2218;51.408;7.208;2022-10-16T05:13:58;19.50;55.60
4411;DHT22;2218;51.408;7.208;2022-10-16T05:16:25;19.50;55.60
4411;DHT22;2218;51.408;7.208;2022-10-16T05:18:54;19.50;55.60
4411;DHT22;2218;51.408;7.208;2022-10-16T05:21:21;19.50;55.60
4411;DHT22;2218;51.408;7.208;2022-10-16T05:23:49;19.50;55.60
4411;DHT22;2218;51.408;7.208;2022-10-16T05:26:15;19.50;55.60
4411;DHT22;2218;51.408;7.208;2022-10-16T05:28:42;19.50;55.50
4411;DHT22;2218;51.408;7.208;2022-10-16T05:31:10;19.50;55.50
4411;DHT22;2218;51.408;7.208;2022-10-16T05:33:36;19.50;55.50
4411;DHT22;2218;51.408;7.208;2022-10-16T05:36:07;19.50;55.50
4411;DHT22;2218;51.408;7.208;2022-10-16T05:38:36;19.50;55.50
4411;DHT22;2218;51.408;7.208;2022-10-16T05:41:04;19.40;55.40
4411;DHT22;2218;51.408;7.208;2022-10-16T05:43:32;19.50;55.50
4411;DHT22;2218;51.408;7.208;2022-10-16T05:46:00;19.50;55.50
4411;DHT22;2218;51.408;7.208;2022-10-16T05:48:29;19.50;55.40
4411;DHT22;2218;51.408;7.208;2022-10-16T05:50:57;19.40;55.30
4411;DHT22;2218;51.408;7.208;2022-10-16T05:53:27;19.40;55.30
4411;DHT22;2218;51.408;7.208;2022-10-16T05:55:55;19.40;55.30
4411;DHT22;2218;51.408;7.208;2022-10-16T05:58:23;19.40;55.30
4411;DHT22;2218;51.408;7.208;2022-10-16T06:00:54;19.50;55.40
4411;DHT22;2218;51.408;7.208;2022-10-16T06:03:22;19.40;55.30
4411;DHT22;2218;51.408;7.208;2022-10-16T06:05:49;19.50;55.40
4411;DHT22;2218;51.408;7.208;2022-10-16T06:08:17;19.40;55.20
4411;DHT22;2218;51.408;7.208;2022-10-16T06:10:46;19.40;55.40
4411;DHT22;2218;51.408;7.208;2022-10-16T06:13:14;19.40;55.30
4411;DHT22;2218;51.408;7.208;2022-10-16T06:15:42;19.50;55.30
4411;DHT22;2218;51.408;7.208;2022-10-16T06:18:09;19.50;55.30
4411;DHT22;2218;51.408;7.208;2022-10-16T06:20:37;19.40;55.30
4411;DHT22;2218;51.408;7.208;2022-10-16T06:23:04;19.50;55.30
4411;DHT22;2218;51.408;7.208;2022-10-16T06:25:31;19.50;55.20
4411;DHT22;2218;51.408;7.208;2022-10-16T06:27:59;19.50;55.20
4411;DHT22;2218;51.408;7.208;2022-10-16T06:30:26;19.50;55.20
4411;DHT22;2218;51.408;7.208;2022-10-16T06:32:53;19.50;55.10
4411;DHT22;2218;51.408;7.208;2022-10-16T06:35:20;19.50;55.20
4411;DHT22;2218;51.408;7.208;2022-10-16T06:37:47;19.50;55.20
4411;DHT22;2218;51.408;7.208;2022-10-16T06:40:14;19.50;55.10
4411;DHT22;2218;51.408;7.208;2022-10-16T06:42:41;19.50;55.10
4411;DHT22;2218;51.408;7.208;2022-10-16T06:45:10;19.60;55.10
4411;DHT22;2218;51.408;7.208;2022-10-16T06:47:38;19.60;55.00
4411;DHT22;2218;51.408;7.208;2022-10-16T06:50:05;19.60;55.00
4411;DHT22;2218;51.408;7.208;2022-10-16T06:52:33;19.60;55.00
4411;DHT22;2218;51.408;7.208;2022-10-16T06:55:00;19.60;55.00
4411;DHT22;2218;51.408;7.208;2022-10-16T06:57:28;19.60;55.00
4411;DHT22;2218;51.408;7.208;2022-10-16T06:59:55;19.60;55.00
4411;DHT22;2218;51.408;7.208;2022-10-16T07:02:24;19.60;55.00
4411;DHT22;2218;51.408;7.208;2022-10-16T07:04:51;19.60;55.00
4411;DHT22;2218;51.408;7.208;2022-10-16T07:07:17;19.60;55.00
4411;DHT22;2218;51.408;7.208;2022-10-16T07:09:44;19.60;55.00
4411;DHT22;2218;51.408;7.208;2022-10-16T07:12:11;19.60;55.00
4411;DHT22;2218;51.408;7.208;2022-10-16T07:14:38;19.60;55.00
4411;DHT22;2218;51.408;7.208;2022-10-16T07:17:05;19.60;55.00
4411;DHT22;2218;51.408;7.208;2022-10-16T07:19:33;19.60;55.00
4411;DHT22;2218;51.408;7.208;2022-10-16T07:22:00;19.60;55.00
4411;DHT22;2218;51.408;7.208;2022-10-16T07:24:28;19.70;55.00
4411;DHT22;2218;51.408;7.208;2022-10-16T07:26:55;19.60;54.90
4411;DHT22;2218;51.408;7.208;2022-10-16T07:29:22;19.60;54.90
4411;DHT22;2218;51.408;7.208;2022-10-16T07:31:49;19.60;54.90
4411;DHT22;2218;51.408;7.208;2022-10-16T07:34:18;19.70;55.00
4411;DHT22;2218;51.408;7.208;2022-10-16T07:36:49;19.60;55.00
4411;DHT22;2218;51.408;7.208;2022-10-16T07:39:16;19.70;55.10
4411;DHT22;2218;51.408;7.208;2022-10-16T07:41:43;19.70;55.00
4411;DHT22;2218;51.408;7.208;2022-10-16T07:44:10;19.60;55.00
4411;DHT22;2218;51.408;7.208;2022-10-16T07:46:37;19.60;54.90
4411;DHT22;2218;51.408;7.208;2022-10-16T07:49:04;19.70;55.00
4411;DHT22;2218;51.408;7.208;2022-10-16T07:51:31;19.60;54.90
4411;DHT22;2218;51.408;7.208;2022-10-16T07:53:59;19.70;55.50
4411;DHT22;2218;51.408;7.208;2022-10-16T07:56:27;19.70;55.00
4411;DHT22;2218;51.408;7.208;2022-10-16T07:58:53;19.70;55.00
4411;DHT22;2218;51.408;7.208;2022-10-16T08:01:21;19.70;54.90
4411;DHT22;2218;51.408;7.208;2022-10-16T08:03:50;19.70;54.90
4411;DHT22;2218;51.408;7.208;2022-10-16T08:06:19;19.70;54.90
4411;DHT22;2218;51.408;7.208;2022-10-16T08:08:47;19.70;54.90
4411;DHT22;2218;51.408;7.208;2022-10-16T08:11:15;19.70;54.90
4411;DHT22;2218;51.408;7.208;2022-10-16T08:13:42;19.70;54.90
4411;DHT22;2218;51.408;7.208;2022-10-16T08:16:09;19.70;54.90
4411;DHT22;2218;51.408;7.208;2022-10-16T08:18:37;19.70;54.90
4411;DHT22;2218;51.408;7.208;2022-10-16T08:21:06;19.70;54.90
4411;DHT22;2218;51.408;7.208;2022-10-16T08:23:34;19.70;54.90
4411;DHT22;2218;51.408;7.208;2022-10-16T08:26:06;19.70;54.90
4411;DHT22;2218;51.408;7.208;2022-10-16T08:28:36;19.70;54.90
4411;DHT22;2218;51.408;7.208;2022-10-16T08:31:08;19.70;54.90
4411;DHT22;2218;51.408;7.208;2022-10-16T08:33:37;19.80;55.00
4411;DHT22;2218;51.408;7.208;2022-10-16T08:36:05;19.80;55.00
4411;DHT22;2218;51.408;7.208;2022-10-16T08:38:33;19.80;55.00
4411;DHT22;2218;51.408;7.208;2022-10-16T08:41:13;19.80;55.00
4411;DHT22;2218;51.408;7.208;2022-10-16T08:44:09;19.80;55.00
4411;DHT22;2218;51.408;7.208;2022-10-16T08:46:56;19.80;55.00
4411;DHT22;2218;51.408;7.208;2022-10-16T08:49:30;19.80;55.00
4411;DHT22;2218;51.408;7.208;2022-10-16T08:51:57;19.80;55.00
4411;DHT22;2218;51.408;7.208;2022-10-16T08:54:29;19.80;55.00
4411;DHT22;2218;51.408;7.208;2022-10-16T08:57:09;19.80;55.00
4411;DHT22;2218;51.408;7.208;2022-10-16T08:59:40;19.80;55.00
4411;DHT22;2218;51.408;7.208;2022-10-16T09:02:23;19.80;55.00
4411;DHT22;2218;51.408;7.208;2022-10-16T09:05:02;19.80;55.00
4411;DHT22;2218;51.408;7.208;2022-10-16T09:07:49;19.80;55.00
4411;DHT22;2218;51.408;7.208;2022-10-16T09:10:35;19.80;55.00
4411;DHT22;2218;51.408;7.208;2022-10-16T09:13:17;19.80;55.00
4411;DHT22;2218;51.408;7.208;2022-10-16T09:15:58;19.80;55.00
4411;DHT22;2218;51.408;7.208;2022-10-16T09:18:37;19.80;55.00
4411;DHT22;2218;51.408;7.208;2022-10-16T09:21:15;19.80;55.00
4411;DHT22;2218;51.408;7.208;2022-10-16T09:23:47;19.80;54.90
4411;DHT22;2218;51.408;7.208;2022-10-16T09:26:15;19.80;54.90
4411;DHT22;2218;51.408;7.208;2022-10-16T09:28:43;19.80;54.90
4411;DHT22;2218;51.408;7.208;2022-10-16T09:31:20;19.80;54.90
4411;DHT22;2218;51.408;7.208;2022-10-16T09:33:52;19.80;54.90
4411;DHT22;2218;51.408;7.208;2022-10-16T09:36:22;19.80;54.90
4411;DHT22;2218;51.408;7.208;2022-10-16T09:39:03;19.80;54.90
4411;DHT22;2218;51.408;7.208;2022-10-16T09:41:34;19.80;54.90
4411;DHT22;2218;51.408;7.208;2022-10-16T09:44:05;19.80;54.80
4411;DHT22;2218;51.408;7.208;2022-10-16T09:46:47;19.80;54.80
4411;DHT22;2218;51.408;7.208;2022-10-16T09:49:21;19.80;54.80
4411;DHT22;2218;51.408;7.208;2022-10-16T09:51:51;19.80;54.80
4411;DHT22;2218;51.408;7.208;2022-10-16T09:54:29;19.80;54.80
4411;DHT22;2218;51.408;7.208;2022-10-16T09:57:04;19.80;54.80
4411;DHT22;2218;51.408;7.208;2022-10-16T09:59:32;19.80;54.80
4411;DHT22;2218;51.408;7.208;2022-10-16T10:02:04;19.80;54.70
4411;DHT22;2218;51.408;7.208;2022-10-16T10:04:42;19.80;54.70
4411;DHT22;2218;51.408;7.208;2022-10-16T10:07:18;19.80;54.70
4411;DHT22;2218;51.408;7.208;2022-10-16T10:09:51;19.80;54.70
4411;DHT22;2218;51.408;7.208;2022-10-16T10:12:21;19.90;54.80
4411;DHT22;2218;51.408;7.208;2022-10-16T10:14:50;19.90;54.80
4411;DHT22;2218;51.408;7.208;2022-10-16T10:17:22;19.80;54.70
4411;DHT22;2218;51.408;7.208;2022-10-16T10:19:52;19.80;54.70
4411;DHT22;2218;51.408;7.208;2022-10-16T10:22:26;19.80;54.70
4411;DHT22;2218;51.408;7.208;2022-10-16T10:25:14;19.90;54.70
4411;DHT22;2218;51.408;7.208;2022-10-16T10:28:04;19.80;54.60
4411;DHT22;2218;51.408;7.208;2022-10-16T10:30:54;19.90;54.70
4411;DHT22;2218;51.408;7.208;2022-10-16T10:33:34;19.90;54.70
4411;DHT22;2218;51.408;7.208;2022-10-16T10:36:15;19.80;54.60
4411;DHT22;2218;51.408;7.208;2022-10-16T10:38:52;19.90;54.70
4411;DHT22;2218;51.408;7.208;2022-10-16T10:42:01;19.90;54.70
4411;DHT22;2218;51.408;7.208;2022-10-16T10:45:00;19.90;54.70
4411;DHT22;2218;51.408;7.208;2022-10-16T10:47:52;19.90;54.70
4411;DHT22;2218;51.408;7.208;2022-10-16T10:50:37;19.90;54.60
4411;DHT22;2218;51.408;7.208;2022-10-16T10:53:18;19.90;54.60
4411;DHT22;2218;51.408;7.208;2022-10-16T10:55:56;19.90;54.60
4411;DHT22;2218;51.408;7.208;2022-10-16T10:58:55;19.90;54.60
4411;DHT22;2218;51.408;7.208;2022-10-16T11:01:39;19.90;54.60
4411;DHT22;2218;51.408;7.208;2022-10-16T11:04:42;19.90;54.60
4411;DHT22;2218;51.408;7.208;2022-10-16T11:07:26;19.90;54.50
4411;DHT22;2218;51.408;7.208;2022-10-16T11:09:58;19.90;54.50
4411;DHT22;2218;51.408;7.208;2022-10-16T11:12:32;19.90;54.50
4411;DHT22;2218;51.408;7.208;2022-10-16T11:15:07;19.90;54.40
4411;DHT22;2218;51.408;7.208;2022-10-16T11:17:41;19.90;54.40
4411;DHT22;2218;51.408;7.208;2022-10-16T11:20:16;19.90;54.40
4411;DHT22;2218;51.408;7.208;2022-10-16T11:22:51;19.90;54.40
4411;DHT22;2218;51.408;7.208;2022-10-16T11:25:25;19.90;54.40
4411;DHT22;2218;51.408;7.208;2022-10-16T11:27:58;19.90;54.40
4411;DHT22;2218;51.408;7.208;2022-10-16T11:30:30;19.90;54.40
4411;DHT22;2218;51.408;7.208;2022-10-16T11:33:20;19.90;54.40
4411;DHT22;2218;51.408;7.208;2022-10-16T11:36:01;19.90;54.40
4411;DHT22;2218;51.408;7.208;2022-10-16T11:38:41;19.90;54.40
4411;DHT22;2218;51.408;7.208;2022-10-16T11:41:23;19.90;54.40
4411;DHT22;2218;51.408;7.208;2022-10-16T11:44:05;19.90;54.40
4411;DHT22;2218;51.408;7.208;2022-10-16T11:46:43;19.90;54.30
4411;DHT22;2218;51.408;7.208;2022-10-16T11:49:21;20.00;54.40
4411;DHT22;2218;51.408;7.208;2022-10-16T11:51:59;19.90;54.30
4411;DHT22;2218;51.408;7.208;2022-10-16T11:54:39;20.00;54.40
4411;DHT22;2218;51.408;7.208;2022-10-16T11:57:16;20.00;54.30
4411;DHT22;2218;51.408;7.208;2022-10-16T11:59:51;20.00;54.30
4411;DHT22;2218;51.408;7.208;2022-10-16T12:02:31;20.00;54.30
4411;DHT22;2218;51.408;7.208;2022-10-16T12:05:15;20.00;54.30
4411;DHT22;2218;51.408;7.208;2022-10-16T12:07:54;20.00;54.20
4411;DHT22;2218;51.408;7.208;2022-10-16T12:10:30;20.00;54.20
4411;DHT22;2218;51.408;7.208;2022-10-16T12:13:02;20.00;54.20
4411;DHT22;2218;51.408;7.208;2022-10-16T12:15:31;20.00;54.20
4411;DHT22;2218;51.408;7.208;2022-10-16T12:18:00;20.00;54.20
4411;DHT22;2218;51.408;7.208;2022-10-16T12:20:29;20.00;54.20
4411;DHT22;2218;51.408;7.208;2022-10-16T12:22:59;20.00;54.20
4411;DHT22;2218;51.408;7.208;2022-10-16T12:25:31;20.00;54.20
4411;DHT22;2218;51.408;7.208;2022-10-16T12:28:02;20.00;54.10
4411;DHT22;2218;51.408;7.208;2022-10-16T12:30:33;20.00;54.20
4411;DHT22;2218;51.408;7.208;2022-10-16T12:33:03;20.00;54.20
4411;DHT22;2218;51.408;7.208;2022-10-16T12:35:33;20.00;54.20
4411;DHT22;2218;51.408;7.208;2022-10-16T12:38:16;20.00;54.10
4411;DHT22;2218;51.408;7.208;2022-10-16T12:40:53;20.00;54.10
4411;DHT22;2218;51.408;7.208;2022-10-16T12:43:39;20.00;54.10
4411;DHT22;2218;51.408;7.208;2022-10-16T12:46:35;20.00;54.10
4411;DHT22;2218;51.408;7.208;2022-10-16T12:49:20;20.00;54.10
4411;DHT22;2218;51.408;7.208;2022-10-16T12:51:56;20.00;54.10
4411;DHT22;2218;51.408;7.208;2022-10-16T12:54:27;20.00;54.10
4411;DHT22;2218;51.408;7.208;2022-10-16T12:57:19;20.00;54.10
4411;DHT22;2218;51.408;7.208;2022-10-16T13:00:03;20.00;54.00
4411;DHT22;2218;51.408;7.208;2022-10-16T13:02:50;20.00;54.00
4411;DHT22;2218;51.408;7.208;2022-10-16T13:05:54;20.00;54.00
4411;DHT22;2218;51.408;7.208;2022-10-16T13:08:50;20.00;54.00
4411;DHT22;2218;51.408;7.208;2022-10-16T13:11:37;20.00;54.00
4411;DHT22;2218;51.408;7.208;2022-10-16T13:14:41;20.00;54.00
4411;DHT22;2218;51.408;7.208;2022-10-16T13:17:21;20.00;54.00
4411;DHT22;2218;51.408;7.208;2022-10-16T13:20:04;20.00;54.00
4411;DHT22;2218;51.408;7.208;2022-10-16T13:22:48;20.00;54.00
4411;DHT22;2218;51.408;7.208;2022-10-16T13:25:32;20.00;53.90
4411;DHT22;2218;51.408;7.208;2022-10-16T13:28:08;20.00;53.90
4411;DHT22;2218;51.408;7.208;2022-10-16T13:30:39;20.00;53.90
4411;DHT22;2218;51.408;7.208;2022-10-16T13:33:14;20.00;53.90
4411;DHT22;2218;51.408;7.208;2022-10-16T13:35:49;20.00;53.90
4411;DHT22;2218;51.408;7.208;2022-10-16T13:38:19;20.00;53.90
4411;DHT22;2218;51.408;7.208;2022-10-16T13:40:53;20.00;53.90
4411;DHT22;2218;51.408;7.208;2022-10-16T13:43:25;20.00;53.90
4411;DHT22;2218;51.408;7.208;2022-10-16T13:45:58;20.00;53.90
4411;DHT22;2218;51.408;7.208;2022-10-16T13:48:27;20.00;53.90
4411;DHT22;2218;51.408;7.208;2022-10-16T13:51:00;20.00;53.90
4411;DHT22;2218;51.408;7.208;2022-10-16T13:53:31;20.00;53.90
4411;DHT22;2218;51.408;7.208;2022-10-16T13:56:01;20.00;53.80
4411;DHT22;2218;51.408;7.208;2022-10-16T13:58:29;20.00;53.80
4411;DHT22;2218;51.408;7.208;2022-10-16T14:00:59;20.00;53.80
4411;DHT22;2218;51.408;7.208;2022-10-16T14:03:28;20.00;53.80
4411;DHT22;2218;51.408;7.208;2022-10-16T14:05:59;20.00;53.80
4411;DHT22;2218;51.408;7.208;2022-10-16T14:08:29;20.00;53.80
4411;DHT22;2218;51.408;7.208;2022-10-16T14:10:58;20.00;53.80
4411;DHT22;2218;51.408;7.208;2022-10-16T14:13:31;20.00;53.80
4411;DHT22;2218;51.408;7.208;2022-10-16T14:16:07;20.00;53.80
4411;DHT22;2218;51.408;7.208;2022-10-16T14:18:38;20.00;53.80
4411;DHT22;2218;51.408;7.208;2022-10-16T14:21:10;20.00;53.80
4411;DHT22;2218;51.408;7.208;2022-10-16T14:23:41;20.00;53.80
4411;DHT22;2218;51.408;7.208;2022-10-16T14:26:13;20.00;53.70
4411;DHT22;2218;51.408;7.208;2022-10-16T14:28:43;20.00;53.70
4411;DHT22;2218;51.408;7.208;2022-10-16T14:31:31;20.00;53.80
4411;DHT22;2218;51.408;7.208;2022-10-16T14:34:01;20.00;53.80
4411;DHT22;2218;51.408;7.208;2022-10-16T14:36:29;20.00;53.70
4411;DHT22;2218;51.408;7.208;2022-10-16T14:39:00;20.00;53.70
4411;DHT22;2218;51.408;7.208;2022-10-16T14:41:30;20.00;53.70
4411;DHT22;2218;51.408;7.208;2022-10-16T14:44:02;20.00;53.80
4411;DHT22;2218;51.408;7.208;2022-10-16T14:46:35;20.00;53.80
4411;DHT22;2218;51.408;7.208;2022-10-16T14:49:14;20.00;53.70
4411;DHT22;2218;51.408;7.208;2022-10-16T14:51:44;20.00;53.70
4411;DHT22;2218;51.408;7.208;2022-10-16T14:54:12;20.00;53.70
4411;DHT22;2218;51.408;7.208;2022-10-16T14:56:46;20.00;53.70
4411;DHT22;2218;51.408;7.208;2022-10-16T14:59:17;20.00;53.70
4411;DHT22;2218;51.408;7.208;2022-10-16T15:01:50;20.00;53.70
4411;DHT22;2218;51.408;7.208;2022-10-16T15:04:17;20.00;53.70
4411;DHT22;2218;51.408;7.208;2022-10-16T15:06:44;20.00;53.70
4411;DHT22;2218;51.408;7.208;2022-10-16T15:09:11;20.00;53.70
4411;DHT22;2218;51.408;7.208;2022-10-16T15:11:38;20.00;53.70
4411;DHT22;2218;51.408;7.208;2022-10-16T15:14:08;20.00;53.70
4411;DHT22;2218;51.408;7.208;2022-10-16T15:16:37;20.00;53.70
4411;DHT22;2218;51.408;7.208;2022-10-16T15:19:05;20.00;53.70
4411;DHT22;2218;51.408;7.208;2022-10-16T15:21:32;20.00;53.70
4411;DHT22;2218;51.408;7.208;2022-10-16T15:24:00;20.00;53.70
4411;DHT22;2218;51.408;7.208;2022-10-16T15:26:28;20.00;53.70
4411;DHT22;2218;51.408;7.208;2022-10-16T15:28:56;20.00;53.70
4411;DHT22;2218;51.408;7.208;2022-10-16T15:31:23;20.00;53.70
4411;DHT22;2218;51.408;7.208;2022-10-16T15:33:51;20.00;53.70
4411;DHT22;2218;51.408;7.208;2022-10-16T15:36:28;20.00;53.70
4411;DHT22;2218;51.408;7.208;2022-10-16T15:38:59;20.00;53.70
4411;DHT22;2218;51.408;7.208;2022-10-16T15:41:26;20.00;53.70
4411;DHT22;2218;51.408;7.208;2022-10-16T15:43:53;20.00;53.80
4411;DHT22;2218;51.408;7.208;2022-10-16T15:46:21;20.00;53.80
4411;DHT22;2218;51.408;7.208;2022-10-16T15:48:50;20.00;53.80
4411;DHT22;2218;51.408;7.208;2022-10-16T15:51:23;20.00;53.80
4411;DHT22;2218;51.408;7.208;2022-10-16T15:53:54;20.00;53.70
4411;DHT22;2218;51.408;7.208;2022-10-16T15:56:22;20.00;53.80
4411;DHT22;2218;51.408;7.208;2022-10-16T15:58:51;20.00;53.80
4411;DHT22;2218;51.408;7.208;2022-10-16T16:01:18;19.90;53.60
4411;DHT22;2218;51.408;7.208;2022-10-16T16:03:46;19.90;53.70
4411;DHT22;2218;51.408;7.208;2022-10-16T16:06:14;20.00;53.80
4411;DHT22;2218;51.408;7.208;2022-10-16T16:08:41;19.90;53.70
4411;DHT22;2218;51.408;7.208;2022-10-16T16:11:11;20.00;54.30
4411;DHT22;2218;51.408;7.208;2022-10-16T16:13:40;19.90;53.70
4411;DHT22;2218;51.408;7.208;2022-10-16T16:16:08;19.90;53.70
4411;DHT22;2218;51.408;7.208;2022-10-16T16:18:36;19.90;53.70
4411;DHT22;2218;51.408;7.208;2022-10-16T16:21:04;19.90;53.70
4411;DHT22;2218;51.408;7.208;2022-10-16T16:23:31;19.90;53.80
4411;DHT22;2218;51.408;7.208;2022-10-16T16:26:04;20.00;53.90
4411;DHT22;2218;51.408;7.208;2022-10-16T16:28:34;19.90;53.70
4411;DHT22;2218;51.408;7.208;2022-10-16T16:31:01;19.90;53.80
4411;DHT22;2218;51.408;7.208;2022-10-16T16:33:28;19.90;53.80